Time;durP1;ratioP1;P1;durP2;ratioP2;P2;SDS_P1;SDS_P2;PMS_P1;PMS_P2;Temp;Humidity;BMP_temperature;BMP_pressure;BME280_temperature;BME280_humidity;BME280_pressure;Samples;Min_cycle;Max_cycle;Signal;HPM_P1;HPM_P2
2021/04/30 00:00:47;;;;;;;36.63;19.65;;;7.00;99.90;;;5.60;93.06;99900.59;4866728;28;20085;-81
2021/04/30 00:03:10;;;;;;;33.15;17.65;;;7.10;99.90;;;5.57;93.17;99898.91;4871326;28;20097;-81
2021/04/30 00:05:33;;;;;;;34.13;17.98;;;7.00;99.90;;;5.57;92.97;99898.06;4867836;28;20472;-79
2021/04/30 00:07:56;;;;;;;39.80;18.90;;;7.00;99.90;;;5.59;93.14;99899.72;4870169;28;20085;-81
2021/04/30 00:10:21;;;;;;;34.60;17.48;;;7.00;99.90;;;5.60;93.45;99895.34;4868645;28;20159;-79
2021/04/30 00:12:44;;;;;;;33.22;17.20;;;7.00;99.90;;;5.62;93.24;99901.38;4871040;28;20161;-81
2021/04/30 00:15:09;;;;;;;34.20;18.75;;;7.00;99.90;;;5.59;93.71;99898.88;4871041;28;20089;-81
2021/04/30 00:17:31;;;;;;;35.97;18.65;;;7.00;99.90;;;5.60;93.75;99900.59;4867185;28;20101;-81
2021/04/30 00:19:54;;;;;;;36.40;18.50;;;7.00;99.90;;;5.60;93.82;99903.19;4870596;28;23058;-82
2021/04/30 00:22:17;;;;;;;39.65;18.73;;;7.10;99.90;;;5.60;93.33;99895.34;4869157;28;20093;-78
2021/04/30 00:24:40;;;;;;;37.90;18.75;;;7.00;99.90;;;5.60;93.58;99903.19;4870673;28;20085;-77
2021/04/30 00:27:05;;;;;;;29.88;15.57;;;7.00;99.90;;;5.57;93.67;99904.13;4867539;28;20104;-81
2021/04/30 00:29:28;;;;;;;33.78;17.27;;;7.00;99.90;;;5.57;93.40;99898.91;4870580;28;20453;-80
2021/04/30 00:31:51;;;;;;;30.90;17.33;;;7.00;99.90;;;5.63;93.52;99898.69;4862903;28;20100;-80
2021/04/30 00:34:14;;;;;;;30.90;16.45;;;7.00;99.90;;;5.61;93.13;99902.25;4871527;28;20092;-81
2021/04/30 00:36:37;;;;;;;31.73;16.85;;;7.10;99.90;;;5.59;93.36;99893.63;4867326;28;20105;-79
2021/04/30 00:39:00;;;;;;;37.70;16.75;;;7.10;99.90;;;5.60;93.51;99898.81;4870397;28;20089;-81
2021/04/30 00:41:23;;;;;;;29.38;15.43;;;7.10;99.90;;;5.62;93.32;99897.00;4867908;28;20090;-79
2021/04/30 00:43:47;;;;;;;31.13;15.27;;;7.10;99.90;;;5.62;93.06;99899.59;4869971;28;20086;-81
2021/04/30 00:46:10;;;;;;;32.08;15.73;;;7.10;99.90;;;5.62;93.22;99896.16;4867127;28;20162;-80
2021/04/30 00:48:33;;;;;;;27.80;14.52;;;7.10;99.90;;;5.60;94.02;99898.81;4869289;28;20093;-81
2021/04/30 00:50:56;;;;;;;28.92;14.55;;;7.00;99.90;;;5.59;93.75;99896.25;4867915;28;20572;-82
2021/04/30 00:53:19;;;;;;;29.33;15.90;;;7.00;99.90;;;5.58;93.92;99911.06;4870535;28;20089;-82
2021/04/30 00:55:42;;;;;;;29.38;15.05;;;7.00;99.90;;;5.58;94.07;99899.78;4866719;28;20089;-81
2021/04/30 00:58:05;;;;;;;30.70;15.70;;;7.00;99.90;;;5.57;94.40;99898.91;4866695;28;20147;-80
2021/04/30 01:00:35;;;;;;;31.13;16.05;;;7.00;99.90;;;5.57;94.68;99900.69;4868236;28;20099;-78
2021/04/30 01:02:58;;;;;;;30.42;14.77;;;7.00;99.90;;;5.52;94.62;99896.47;4866614;28;20089;-82
2021/04/30 01:05:23;;;;;;;25.50;13.60;;;7.00;99.90;;;5.52;94.97;99906.94;4872183;28;20085;-76
2021/04/30 01:07:46;;;;;;;30.45;15.13;;;7.00;99.90;;;5.52;95.24;99904.31;4871934;28;20505;-81
2021/04/30 01:10:11;;;;;;;31.10;14.02;;;7.00;99.90;;;5.54;95.10;99899.88;4869732;28;20085;-82
2021/04/30 01:12:35;;;;;;;28.42;14.98;;;7.00;99.90;;;5.53;95.70;99908.66;4872835;28;20096;-81
2021/04/30 01:14:59;;;;;;;27.52;14.50;;;7.00;99.90;;;5.55;95.69;99906.84;4874374;28;20081;-79
2021/04/30 01:17:23;;;;;;;23.25;13.13;;;7.00;99.90;;;5.58;95.65;99910.22;4870265;28;20599;-80
2021/04/30 01:19:46;;;;;;;23.25;11.70;;;7.00;99.90;;;5.58;96.30;99915.47;4873094;28;20084;-81
2021/04/30 01:22:11;;;;;;;24.80;13.35;;;7.00;99.90;;;5.55;96.89;99911.22;4869768;28;20089;-80
2021/04/30 01:24:33;;;;;;;29.25;14.52;;;6.90;99.90;;;5.53;97.33;99923.47;4870018;28;20077;-80
2021/04/30 01:26:57;;;;;;;29.30;14.35;;;7.00;99.90;;;5.54;97.40;99923.38;4872030;28;20094;-82
2021/04/30 01:29:21;;;;;;;31.40;15.27;;;7.00;99.90;;;5.53;97.11;99926.09;4872527;28;20185;-82
2021/04/30 01:31:44;;;;;;;27.73;14.98;;;7.00;99.90;;;5.55;97.55;99932.94;4873298;28;20108;-81
2021/04/30 01:34:07;;;;;;;28.90;14.50;;;7.00;99.90;;;5.55;97.37;99939.94;4868943;28;20081;-81
2021/04/30 01:36:32;;;;;;;32.97;15.63;;;7.00;99.90;;;5.54;97.77;99941.66;4873890;28;20097;-80
2021/04/30 01:38:55;;;;;;;29.60;14.95;;;7.00;99.90;;;5.58;97.46;99936.34;4869397;28;20089;-82
2021/04/30 01:41:21;;;;;;;32.40;15.60;;;7.00;99.90;;;5.50;98.03;99947.06;4872489;28;20092;-82
2021/04/30 01:43:44;;;;;;;30.45;14.55;;;6.90;99.90;;;5.49;98.56;99954.06;4869916;28;20089;-80
2021/04/30 01:46:06;;;;;;;23.63;9.95;;;6.90;99.90;;;5.44;97.98;99960.34;4871750;28;20085;-82
2021/04/30 01:48:31;;;;;;;24.60;11.48;;;6.90;99.90;;;5.45;98.58;99957.69;4867693;28;20093;-80
2021/04/30 01:50:56;;;;;;;16.38;8.82;;;6.80;99.90;;;5.41;98.48;99948.28;4873167;28;20464;-79
2021/04/30 01:53:22;;;;;;;24.63;12.33;;;6.90;99.90;;;5.42;98.33;99957.81;4869530;28;20078;-82
2021/04/30 01:55:46;;;;;;;12.80;5.93;;;6.90;99.90;;;5.42;98.04;99960.44;4871575;28;20086;-79
2021/04/30 01:58:10;;;;;;;24.23;7.75;;;6.80;99.90;;;5.39;98.64;99957.06;4872245;28;20085;-79
2021/04/30 02:00:33;;;;;;;18.20;7.45;;;6.90;99.90;;;5.38;98.39;99964.06;4873130;28;20199;-79
2021/04/30 02:02:58;;;;;;;10.98;6.10;;;6.80;99.90;;;5.35;98.68;99967.63;4871354;28;20097;-79
2021/04/30 02:05:24;;;;;;;14.50;7.85;;;6.80;99.90;;;5.34;98.27;99976.38;4873434;28;20540;-79
2021/04/30 02:07:47;;;;;;;13.50;7.18;;;6.80;99.90;;;5.35;98.05;99972.84;4861845;28;20184;-79
2021/04/30 02:10:17;;;;;;;10.73;5.50;;;6.80;99.90;;;5.27;97.95;99974.03;4872351;28;20444;-80
2021/04/30 02:12:40;;;;;;;11.13;5.78;;;6.70;99.90;;;5.23;97.41;99982.91;4862115;28;20091;-79
2021/04/30 02:15:05;;;;;;;8.68;4.90;;;6.60;99.90;;;5.16;97.42;100002.28;4873036;28;20433;-79
2021/04/30 02:17:30;;;;;;;15.63;6.30;;;6.50;99.90;;;5.02;97.93;100001.03;4867440;28;20104;-77
2021/04/30 02:19:53;;;;;;;6.97;3.70;;;6.50;99.90;;;4.97;98.08;100026.44;4870553;28;20492;-78
2021/04/30 02:22:16;;;;;;;13.18;5.28;;;6.40;99.90;;;4.94;98.29;100031.75;4872813;28;20541;-80
2021/04/30 02:24:40;;;;;;;16.35;5.22;;;6.40;99.90;;;4.91;98.07;100024.03;4869471;28;20085;-78
2021/04/30 02:27:03;;;;;;;10.20;5.65;;;6.40;99.90;;;4.87;98.37;100040.69;4870638;28;20083;-79
2021/04/30 02:29:26;;;;;;;15.52;6.35;;;6.40;99.90;;;4.84;98.24;100043.41;4865353;28;20103;-79
2021/04/30 02:31:49;;;;;;;21.75;8.13;;;6.30;99.90;;;4.80;98.09;100042.66;4872881;28;20129;-77
2021/04/30 02:34:12;;;;;;;10.57;5.32;;;6.30;99.90;;;4.75;97.87;100054.13;4872587;28;20094;-80
2021/04/30 02:36:35;;;;;;;15.60;6.25;;;6.20;99.90;;;4.70;98.20;100057.75;4868904;28;20084;-83
2021/04/30 02:38:58;;;;;;;21.15;8.57;;;6.20;99.90;;;4.70;97.77;100062.13;4868577;28;20088;-79
2021/04/30 02:41:21;;;;;;;12.15;7.07;;;6.20;99.90;;;4.68;97.38;100074.34;4867057;28;20576;-81
2021/04/30 02:43:44;;;;;;;25.60;8.77;;;6.20;99.90;;;4.72;97.14;100082.03;4866427;28;20094;-80
2021/04/30 02:46:08;;;;;;;15.00;5.40;;;6.20;99.90;;;4.65;97.07;100072.69;4871251;28;20095;-80
2021/04/30 02:48:33;;;;;;;23.25;8.98;;;6.90;99.90;;;4.69;96.79;100083.91;4867628;28;20105;-78
2021/04/30 02:50:58;;;;;;;21.90;8.07;;;6.10;99.90;;;4.70;96.87;100096.88;4871479;28;20117;-76
2021/04/30 02:53:21;;;;;;;21.58;8.45;;;6.10;99.90;;;4.68;96.30;100097.81;4868523;28;20138;-78
2021/04/30 02:55:45;;;;;;;15.40;6.78;;;6.20;99.90;;;4.64;96.85;100101.44;4870682;28;20436;-79
2021/04/30 02:58:08;;;;;;;10.88;6.60;;;6.20;99.90;;;4.63;96.49;100108.41;4870500;28;20086;-77
2021/04/30 03:00:31;;;;;;;9.73;4.72;;;6.10;99.90;;;4.62;96.62;100124.97;4869718;28;20545;-78
2021/04/30 03:02:55;;;;;;;25.02;8.63;;;6.10;99.90;;;4.61;96.71;100118.03;4869698;28;20520;-78
2021/04/30 03:05:19;;;;;;;16.90;7.93;;;6.10;99.90;;;4.65;96.19;100132.69;4864722;28;20090;-78
2021/04/30 03:07:43;;;;;;;17.50;6.78;;;6.10;99.90;;;4.64;96.31;100133.56;4870766;28;20092;-77
2021/04/30 03:10:08;;;;;;;16.23;6.68;;;6.20;99.90;;;4.62;95.69;100151.06;4869595;28;20453;-79
2021/04/30 03:12:31;;;;;;;18.73;8.35;;;6.10;99.90;;;4.62;96.09;100153.66;4869535;28;20163;-79
2021/04/30 03:14:54;;;;;;;13.23;6.60;;;6.10;99.90;;;4.63;96.13;100160.56;4866450;28;20078;-77
2021/04/30 03:17:17;;;;;;;11.32;6.18;;;6.20;99.90;;;4.67;94.97;100176.97;4869221;28;20141;-77
2021/04/30 03:19:41;;;;;;;13.15;7.20;;;6.10;99.90;;;4.53;95.73;100180.00;4868389;28;20080;-80
2021/04/30 03:22:04;;;;;;;20.30;7.53;;;6.10;99.90;;;4.57;95.57;100181.59;4866560;28;20086;-78
2021/04/30 03:24:27;;;;;;;13.23;5.68;;;6.00;99.90;;;4.50;95.63;100200.97;4871830;28;20178;-80
2021/04/30 03:26:50;;;;;;;8.23;4.47;;;6.00;99.90;;;4.52;95.10;100196.56;4870514;28;20094;-79
2021/04/30 03:29:13;;;;;;;8.38;4.82;;;;;;;4.37;95.18;100208.28;4868836;28;20083;-77
2021/04/30 03:31:36;;;;;;;9.98;3.42;;;5.90;99.90;;;4.31;95.16;100193.66;4869951;28;20099;-82
2021/04/30 03:34:00;;;;;;;9.55;4.28;;;5.80;99.90;;;4.24;95.85;100205.19;4867759;28;20554;-77
2021/04/30 03:36:24;;;;;;;7.53;3.65;;;5.80;99.90;;;4.28;95.25;100218.97;4870321;28;20094;-78
2021/04/30 03:38:47;;;;;;;5.78;3.30;;;5.70;99.90;;;4.16;95.18;100221.94;4855048;28;20096;-78
2021/04/30 03:41:10;;;;;;;10.32;2.83;;;5.70;99.90;;;4.10;94.84;100225.56;4868339;28;20084;-81
2021/04/30 03:43:33;;;;;;;7.22;3.15;;;5.70;99.90;;;4.08;95.58;100230.81;4870207;28;20178;-78
2021/04/30 03:45:58;;;;;;;6.55;3.05;;;5.70;99.90;;;4.04;95.74;100242.22;4870647;28;20089;-80
2021/04/30 03:48:22;;;;;;;4.90;2.60;;;5.60;99.90;;;4.04;96.11;100239.63;4866879;28;20114;-79
2021/04/30 03:50:46;;;;;;;4.20;2.50;;;5.60;99.90;;;4.06;95.62;100237.81;4869858;28;20217;-76
2021/04/30 03:53:09;;;;;;;6.63;2.92;;;5.60;99.90;;;3.99;96.20;100243.22;4871189;28;20496;-78
2021/04/30 03:55:32;;;;;;;7.00;2.88;;;5.50;99.90;;;4.00;95.99;100256.22;4871751;28;21108;-77
2021/04/30 03:57:55;;;;;;;4.85;3.20;;;5.60;99.90;;;4.03;96.13;100257.88;4867333;28;20098;-80
2021/04/30 04:00:19;;;;;;;9.32;3.55;;;5.60;99.90;;;4.05;96.10;100262.16;4870626;28;20102;-81
2021/04/30 04:02:43;;;;;;;6.18;3.45;;;5.60;99.90;;;3.99;95.97;100272.75;4866622;28;20091;-79
2021/04/30 04:05:07;;;;;;;8.85;4.45;;;6.80;99.90;;;4.02;95.62;100283.09;4864892;28;20091;-77
2021/04/30 04:07:30;;;;;;;9.48;4.07;;;5.60;99.90;;;4.11;94.59;100277.63;4869692;28;20091;-80
2021/04/30 04:09:53;;;;;;;9.80;3.53;;;5.70;99.90;;;4.12;94.39;100294.09;4867019;28;20106;-79
2021/04/30 04:12:16;;;;;;;7.97;4.28;;;5.70;99.90;;;4.11;94.14;100297.63;4867486;28;20092;-79
2021/04/30 04:14:40;;;;;;;6.03;3.47;;;5.70;99.90;;;4.17;94.13;100307.91;4870036;28;20107;-78
2021/04/30 04:17:04;;;;;;;9.23;3.67;;;5.70;99.90;;;4.11;94.35;100306.28;4869926;28;20084;-79
2021/04/30 04:19:27;;;;;;;9.32;3.72;;;5.70;99.90;;;4.15;93.43;100311.41;4862166;28;20080;-79
2021/04/30 04:21:50;;;;;;;7.53;3.58;;;5.70;99.90;;;4.14;92.90;100318.38;4869677;28;20083;-77
2021/04/30 04:24:14;;;;;;;6.55;3.50;;;5.70;99.90;;;4.25;91.96;100325.91;4870336;28;20095;-79
2021/04/30 04:26:37;;;;;;;9.93;4.40;;;5.70;99.90;;;4.16;92.86;100327.00;4866705;28;20084;-79
2021/04/30 04:29:01;;;;;;;12.95;3.63;;;5.70;99.90;;;4.18;92.58;100330.44;4869326;28;20080;-79
2021/04/30 04:31:24;;;;;;;11.93;3.35;;;5.70;99.90;;;4.26;92.24;100332.84;4869381;28;20102;-78
2021/04/30 04:33:48;;;;;;;5.90;2.47;;;5.80;99.90;;;4.24;92.19;100342.47;4869809;28;20084;-79
2021/04/30 04:36:11;;;;;;;10.70;3.42;;;5.80;99.90;;;4.23;92.21;100348.56;4862368;28;20087;-78
2021/04/30 04:38:34;;;;;;;2.13;1.45;;;5.80;99.90;;;4.23;91.72;100356.38;4868877;28;20471;-77
2021/04/30 04:40:57;;;;;;;4.88;3.10;;;5.80;99.90;;;4.31;91.17;100357.88;4869207;28;20130;-75
2021/04/30 04:43:21;;;;;;;6.00;3.20;;;;;;;4.28;91.35;100365.78;4873054;28;20142;-78
2021/04/30 04:45:47;;;;;;;8.20;2.83;;;5.80;99.90;;;4.32;91.99;100370.03;4873207;28;20084;-77
2021/04/30 04:48:10;;;;;;;7.72;2.78;;;5.90;99.90;;;4.37;90.85;100374.28;4871447;28;20093;-78
2021/04/30 04:50:33;;;;;;;9.57;2.83;;;5.80;99.90;;;4.30;90.51;100382.25;4868505;28;20095;-77
2021/04/30 04:52:55;;;;;;;7.50;3.10;;;5.90;99.90;;;4.37;90.90;100376.88;4872663;28;20129;-79
2021/04/30 04:55:18;;;;;;;7.55;3.55;;;5.90;99.90;;;4.39;90.50;100388.97;4871794;28;20092;-78
2021/04/30 04:57:42;;;;;;;7.47;3.20;;;5.90;99.90;;;4.41;90.22;100396.75;4869610;28;21889;-79
2021/04/30 05:00:09;;;;;;;4.97;2.92;;;5.90;99.90;;;4.41;89.97;100405.44;4872381;28;20111;-79
2021/04/30 05:02:32;;;;;;;6.55;2.95;;;6.00;99.90;;;4.46;89.75;100410.50;4871961;28;20129;-79
2021/04/30 05:04:55;;;;;;;4.93;2.10;;;6.00;99.90;;;4.48;89.60;100411.34;4874357;28;20538;-81
2021/04/30 05:07:20;;;;;;;9.60;3.47;;;6.00;99.90;;;4.52;89.67;100429.47;4864869;28;20084;-75
2021/04/30 05:09:43;;;;;;;5.07;2.35;;;6.00;99.90;;;4.55;88.47;100431.13;4872607;28;20087;-75
2021/04/30 05:12:08;;;;;;;5.28;2.90;;;6.10;99.90;;;4.55;89.11;100443.31;4872848;28;20247;-79
2021/04/30 05:14:30;;;;;;;6.50;2.45;;;6.10;99.90;;;4.53;89.79;100456.38;4863886;28;20505;-79
2021/04/30 05:16:54;;;;;;;7.65;2.97;;;6.10;99.90;;;4.54;89.50;100458.09;4872610;28;20106;-77
2021/04/30 05:19:17;;;;;;;8.32;3.33;;;6.10;99.90;;;4.56;90.51;100466.75;4872726;28;20543;-78
2021/04/30 05:21:42;;;;;;;9.32;3.13;;;6.10;99.90;;;4.58;90.17;100478.00;4865313;28;20097;-79
2021/04/30 05:24:07;;;;;;;8.98;3.20;;;6.10;99.90;;;4.57;89.51;100471.06;4865057;28;20090;-79
2021/04/30 05:26:31;;;;;;;5.88;2.72;;;6.10;99.90;;;4.63;88.62;100478.72;4872571;28;20544;-77
2021/04/30 05:28:56;;;;;;;11.25;3.10;;;6.10;99.90;;;4.59;88.54;100476.25;4869131;28;20091;-76
2021/04/30 05:31:19;;;;;;;9.48;2.58;;;6.10;99.90;;;4.63;88.87;100488.31;4870676;28;20141;-79
2021/04/30 05:33:43;;;;;;;5.70;2.80;;;6.20;99.90;;;4.65;88.96;100483.91;4867691;28;20473;-79
2021/04/30 05:36:06;;;;;;;11.00;3.35;;;6.20;99.90;;;4.70;88.21;100492.44;4869571;28;20091;-79
2021/04/30 05:38:29;;;;;;;6.28;2.92;;;6.20;99.90;;;4.69;88.94;100494.22;4872336;28;20083;-74
2021/04/30 05:40:52;;;;;;;8.30;2.25;;;6.20;99.90;;;4.62;88.35;100502.22;4874329;28;20090;-79
2021/04/30 05:43:16;;;;;;;9.93;3.33;;;6.20;99.90;;;4.68;87.40;100510.75;4866856;28;20085;-78
2021/04/30 05:45:40;;;;;;;9.95;3.03;;;6.20;99.90;;;4.76;87.43;100522.75;4865710;28;20084;-76
2021/04/30 05:48:04;;;;;;;9.55;4.13;;;6.20;99.90;;;4.73;88.08;100515.88;4870417;28;20159;-79
2021/04/30 05:50:28;;;;;;;8.32;3.35;;;6.30;99.90;;;4.68;88.12;100526.38;4870803;28;20426;-79
2021/04/30 05:52:51;;;;;;;5.03;3.08;;;6.20;99.90;;;4.72;88.23;100522.81;4865226;28;20094;-79
2021/04/30 05:55:14;;;;;;;7.85;3.55;;;6.20;99.90;;;4.69;88.16;100529.88;4872500;28;20160;-77
2021/04/30 05:57:38;;;;;;;6.90;3.58;;;6.30;99.90;;;4.76;88.54;100535.78;4873383;28;20087;-79
2021/04/30 06:00:01;;;;;;;10.73;4.05;;;6.20;99.90;;;4.79;87.67;100533.09;4870908;28;20075;-79
2021/04/30 06:02:25;;;;;;;14.05;4.30;;;6.30;99.90;;;4.81;88.03;100539.97;4864206;28;20099;-76
2021/04/30 06:04:48;;;;;;;12.20;3.95;;;6.30;99.90;;;4.75;87.36;100540.13;4872300;28;20560;-77
2021/04/30 06:07:12;;;;;;;7.97;4.00;;;6.30;99.90;;;4.80;88.17;100547.88;4868506;28;20093;-79
2021/04/30 06:09:35;;;;;;;7.38;4.18;;;6.30;99.90;;;4.78;88.65;100547.03;4872540;28;20098;-79
2021/04/30 06:11:58;;;;;;;10.98;3.97;;;6.30;99.90;;;4.83;87.64;100558.22;4872011;28;20087;-78
2021/04/30 06:14:26;;;;;;;10.10;4.13;;;6.30;99.90;;;4.86;88.24;100558.13;4871742;28;20097;-79
2021/04/30 06:16:49;;;;;;;6.45;2.58;;;6.40;99.90;;;4.87;88.42;100565.06;4868826;28;20172;-79
2021/04/30 06:19:12;;;;;;;17.40;4.53;;;6.40;99.90;;;4.93;87.44;100567.53;4870370;28;20204;-79
2021/04/30 06:21:35;;;;;;;8.13;4.40;;;6.40;99.90;;;4.96;87.52;100570.03;4873514;28;20085;-78
2021/04/30 06:24:06;;;;;;;5.75;3.50;;;6.40;99.90;;;4.96;87.20;100570.03;4870754;28;20085;-78
2021/04/30 06:26:29;;;;;;;10.18;3.83;;;6.40;99.90;;;4.94;86.90;100571.81;4860406;28;20085;-80
2021/04/30 06:28:53;;;;;;;7.95;4.28;;;6.50;99.90;;;5.03;86.84;100582.06;4868154;28;20083;-77
2021/04/30 06:31:16;;;;;;;9.23;4.85;;;6.50;99.90;;;4.91;87.68;100584.97;4867440;28;20133;-78
2021/04/30 06:33:39;;;;;;;8.43;4.50;;;6.40;99.90;;;5.00;86.37;100589.94;4867110;28;20088;-78
2021/04/30 06:36:02;;;;;;;7.35;4.13;;;6.50;99.90;;;5.07;86.33;100593.25;4872058;28;20133;-79
2021/04/30 06:38:25;;;;;;;7.10;3.58;;;6.50;99.90;;;5.10;86.97;100594.03;4868922;28;20085;-77
2021/04/30 06:40:51;;;;;;;10.05;4.22;;;6.50;99.90;;;5.07;87.25;100609.75;4869266;28;20078;-77
2021/04/30 06:43:14;;;;;;;9.48;4.28;;;6.50;99.90;;;4.91;88.35;100609.28;4868454;28;20093;-78
2021/04/30 06:45:37;;;;;;;8.10;4.15;;;6.50;99.90;;;5.00;87.40;100609.97;4870321;28;20478;-79
2021/04/30 06:48:00;;;;;;;12.07;4.28;;;;;;;5.03;87.73;100609.88;4871445;28;20086;-80
2021/04/30 06:50:23;;;;;;;10.23;4.25;;;6.60;99.90;;;5.16;87.06;100607.81;4868403;28;20156;-79
2021/04/30 06:52:46;;;;;;;16.55;4.50;;;6.60;99.90;;;5.01;88.46;100619.50;4866041;28;20088;-77
2021/04/30 06:55:10;;;;;;;10.90;4.90;;;6.50;99.90;;;5.01;89.19;100624.72;4872214;28;20545;-77
2021/04/30 06:57:34;;;;;;;10.20;4.47;;;6.50;99.90;;;5.01;88.22;100630.81;4864216;28;20074;-78
2021/04/30 06:59:58;;;;;;;11.00;5.00;;;6.50;99.90;;;5.06;87.87;100625.47;4866230;28;20650;-75
2021/04/30 07:02:21;;;;;;;9.35;4.30;;;6.60;99.90;;;5.19;87.98;100623.41;4871682;28;20093;-78
2021/04/30 07:04:43;;;;;;;7.53;4.28;;;6.60;99.90;;;5.04;87.36;100628.13;4867115;28;20168;-77
2021/04/30 07:07:06;;;;;;;6.40;3.88;;;6.60;99.90;;;5.08;87.67;100634.97;4864773;28;20082;-78
2021/04/30 07:09:29;;;;;;;8.45;4.05;;;6.60;99.90;;;5.08;86.98;100634.97;4869633;28;20089;-78
2021/04/30 07:11:52;;;;;;;8.70;3.80;;;6.60;99.90;;;5.16;87.50;100636.53;4866553;28;20096;-76
2021/04/30 07:14:16;;;;;;;10.32;3.58;;;6.70;99.90;;;5.24;87.95;100637.19;4869524;28;20472;-78
2021/04/30 07:16:39;;;;;;;8.32;3.42;;;6.80;99.90;;;5.42;87.49;100639.31;4869633;28;20113;-76
2021/04/30 07:19:02;;;;;;;6.38;3.55;;;6.90;99.90;;;5.38;87.19;100642.03;4870812;28;20101;-77
2021/04/30 07:21:25;;;;;;;11.48;3.35;;;6.90;99.90;;;5.46;86.92;100648.75;4871200;28;20207;-78
2021/04/30 07:23:48;;;;;;;6.38;3.13;;;7.00;99.90;;;5.48;85.54;100648.72;4865925;28;20100;-78
2021/04/30 07:26:11;;;;;;;6.88;3.60;;;7.00;99.90;;;5.53;86.91;100657.31;4867847;28;20093;-78
2021/04/30 07:28:34;;;;;;;7.72;3.40;;;7.00;99.90;;;5.33;85.77;100658.72;4863162;28;20088;-77
2021/04/30 07:30:59;;;;;;;8.75;3.30;;;6.90;99.90;;;5.39;86.91;100665.50;4870999;28;20098;-78
2021/04/30 07:33:21;;;;;;;11.80;4.00;;;6.90;99.90;;;5.44;87.01;100665.38;4862296;28;20702;-79
2021/04/30 07:35:44;;;;;;;13.05;4.70;;;7.00;99.90;;;5.57;86.53;100665.91;4871948;28;20594;-77
2021/04/30 07:38:09;;;;;;;13.45;4.50;;;7.00;99.90;;;5.60;87.23;100665.84;4871563;28;20081;-75
2021/04/30 07:40:32;;;;;;;8.30;3.58;;;7.00;99.90;;;5.52;85.98;100668.66;4868487;28;20093;-78
2021/04/30 07:42:56;;;;;;;8.50;3.50;;;7.00;99.90;;;5.47;86.90;100676.63;4861013;28;20089;-79
2021/04/30 07:45:19;;;;;;;10.55;3.75;;;;;;;5.35;87.66;100684.75;4869100;28;20119;-79
2021/04/30 07:47:44;;;;;;;11.85;4.40;;;7.00;99.90;;;5.47;86.32;100681.84;4859483;28;20097;-79
2021/04/30 07:50:08;;;;;;;8.05;3.47;;;7.00;99.90;;;5.44;86.14;100676.72;4865903;28;20089;-78
2021/04/30 07:52:32;;;;;;;5.35;2.92;;;7.00;99.90;;;5.55;86.58;100682.50;4871706;28;21402;-77
2021/04/30 07:54:54;;;;;;;5.78;3.40;;;7.00;99.90;;;5.56;86.15;100693.78;4871039;28;20089;-79
2021/04/30 07:57:18;;;;;;;7.57;3.40;;;;;;;5.46;86.58;100698.38;4859265;28;20166;-78
2021/04/30 07:59:40;;;;;;;7.57;3.25;;;7.00;99.90;;;5.44;85.70;100704.56;4867432;28;20082;-78
2021/04/30 08:02:04;;;;;;;6.50;2.75;;;6.90;99.90;;;5.28;85.81;100715.38;4865081;28;20108;-79
2021/04/30 08:04:28;;;;;;;8.93;2.92;;;6.90;99.90;;;5.34;85.26;100717.00;4869106;28;20096;-77
2021/04/30 08:06:51;;;;;;;6.90;2.88;;;6.90;99.90;;;5.46;85.36;100732.34;4863075;28;20101;-79
2021/04/30 08:09:14;;;;;;;6.18;3.70;;;6.90;99.90;;;5.53;85.76;100740.91;4870421;28;20089;-79
2021/04/30 08:11:37;;;;;;;5.78;3.13;;;7.00;99.90;;;5.56;84.62;100738.19;4865373;28;20172;-78
2021/04/30 08:14:01;;;;;;;9.52;2.75;;;7.00;99.90;;;5.45;86.27;100753.28;4868925;28;20077;-78
2021/04/30 08:16:25;;;;;;;4.90;2.55;;;7.00;99.90;;;5.52;85.40;100752.22;4871346;28;20089;-77
2021/04/30 08:18:48;;;;;;;8.00;3.42;;;7.00;99.90;;;5.42;86.02;100754.22;4865583;28;20098;-79
2021/04/30 08:21:11;;;;;;;7.35;2.80;;;6.90;99.90;;;5.37;85.80;100769.13;4866265;28;20082;-79
2021/04/30 08:23:35;;;;;;;6.20;3.03;;;7.00;99.90;;;5.40;85.38;100769.06;4870386;28;20092;-77
2021/04/30 08:25:58;;;;;;;9.00;2.65;;;6.90;99.90;;;5.39;86.17;100772.56;4864905;28;20085;-73
2021/04/30 08:28:21;;;;;;;6.13;3.17;;;6.90;99.90;;;5.40;86.11;100781.25;4869197;28;20088;-77
2021/04/30 08:30:44;;;;;;;11.93;3.78;;;6.90;99.90;;;5.41;84.96;100782.97;4864772;28;20159;-79
2021/04/30 08:33:07;;;;;;;7.93;3.55;;;6.90;99.90;;;5.36;86.68;100788.31;4866483;28;20097;-78
2021/04/30 08:35:30;;;;;;;9.13;3.33;;;6.90;99.90;;;5.34;87.22;100798.78;4871277;28;20082;-78
2021/04/30 08:37:55;;;;;;;6.28;3.33;;;7.00;99.90;;;5.49;86.57;100797.56;4865657;28;20096;-78
2021/04/30 08:40:18;;;;;;;8.00;3.63;;;7.00;99.90;;;5.54;85.94;100810.50;4865009;28;20089;-79
2021/04/30 08:42:41;;;;;;;9.50;4.00;;;7.10;99.90;;;5.71;86.33;100804.88;4862962;28;20460;-78
2021/04/30 08:45:07;;;;;;;11.38;3.78;;;7.20;99.90;;;5.75;86.23;100814.34;4868384;28;20085;-79
2021/04/30 08:47:30;;;;;;;8.88;2.83;;;7.20;99.90;;;5.65;85.89;100818.94;4864871;28;20089;-79
2021/04/30 08:49:56;;;;;;;5.82;2.67;;;7.20;99.90;;;5.70;83.80;100818.81;4869885;28;20088;-79
2021/04/30 08:52:19;;;;;;;;;;;7.20;99.90;;;5.54;84.80;100832.25;4866742;28;20501;-77
2021/04/30 08:54:43;;;;;;;7.63;3.30;;;7.10;99.90;;;5.55;86.14;100830.53;4871150;28;20320;-78
2021/04/30 08:57:09;;;;;;;5.97;2.90;;;7.10;99.90;;;5.57;84.55;100838.31;4864849;28;20102;-78
2021/04/30 08:59:33;;;;;;;18.30;3.20;;;7.10;99.90;;;5.60;85.66;100844.31;4869055;28;20077;-78
2021/04/30 09:02:28;;;;;;;7.05;2.75;;;7.10;99.90;;;5.68;86.15;100836.28;4821835;28;20101;-77
2021/04/30 09:05:11;;;;;;;13.05;2.40;;;7.20;99.90;;;5.70;86.07;100844.94;4774414;28;20090;-77
2021/04/30 09:08:05;;;;;;;6.80;2.60;;;7.20;99.90;;;5.68;84.93;100847.63;4789247;28;20086;-78
2021/04/30 09:11:13;;;;;;;6.95;2.42;;;7.20;99.90;;;5.64;84.74;100845.13;4770588;28;20090;-76
2021/04/30 09:14:30;;;;;;;6.07;3.00;;;7.20;99.90;;;5.86;84.97;100848.91;4795056;28;20104;-77
2021/04/30 09:17:38;;;;;;;3.65;2.65;;;7.40;99.90;;;6.01;83.57;100854.69;4791834;28;20089;-80
2021/04/30 09:20:35;;;;;;;2.95;2.00;;;7.50;99.90;;;6.01;84.63;100854.69;4769814;28;20098;-78
2021/04/30 09:30:33;;;;;;;7.72;2.70;;;7.50;99.90;;;6.03;83.55;100874.66;4784554;28;20464;-79
2021/04/30 09:37:40;;;;;;;6.93;2.28;;;7.40;99.90;;;5.83;85.91;100882.97;4792804;28;20912;-79
2021/04/30 09:40:12;;;;;;;4.80;2.50;;;7.50;99.90;;;5.91;86.43;100885.38;4785973;28;20532;-82
2021/04/30 10:43:36;;;;;;;6.22;2.30;;;7.30;99.90;;;5.69;83.57;100950.38;4818263;28;20621;-80
2021/04/30 10:56:31;;;;;;;7.38;2.17;;;7.60;99.90;;;5.99;81.90;100954.03;4903927;28;20092;-82
2021/04/30 10:58:55;;;;;;;6.93;2.30;;;7.70;99.90;;;6.22;81.58;100953.50;4903028;28;20082;-80
2021/04/30 11:01:29;;;;;;;5.45;2.55;;;7.70;99.90;;;6.13;81.32;100951.97;4903982;28;20077;-82
2021/04/30 11:04:19;;;;;;;9.18;2.50;;;7.80;99.90;;;6.38;81.56;100953.94;4899740;28;20089;-81
2021/04/30 11:06:45;;;;;;;8.13;2.22;;;7.90;99.90;;;6.53;83.15;100955.31;4889700;28;20085;-81
2021/04/30 11:09:15;;;;;;;13.45;2.75;;;8.00;99.90;;;6.40;81.73;100957.38;4900772;28;20092;-83
2021/04/30 11:11:40;;;;;;;8.85;2.42;;;7.90;99.90;;;6.34;82.69;100957.53;4886418;28;20076;-81
2021/04/30 11:14:35;;;;;;;4.95;2.45;;;7.90;99.90;;;6.35;83.52;100960.13;4886730;28;20093;-79
2021/04/30 11:17:01;;;;;;;7.05;2.83;;;8.10;99.90;;;6.84;83.44;100951.88;4899853;28;20088;-80
2021/04/30 11:19:27;;;;;;;6.53;2.55;;;8.10;99.90;;;6.55;82.50;100961.38;4884857;28;20081;-80
2021/04/30 11:21:53;;;;;;;9.05;2.45;;;8.20;99.90;;;6.70;83.28;100963.56;4884786;28;20085;-78
2021/04/30 11:24:51;;;;;;;11.88;2.70;;;8.50;99.90;;;7.09;81.18;100973.84;4885374;28;20215;-80
2021/04/30 11:27:36;;;;;;;8.18;2.22;;;8.60;99.90;;;7.16;79.91;100970.16;4903875;28;20093;-79
2021/04/30 11:30:32;;;;;;;9.70;2.70;;;8.50;99.90;;;6.86;79.17;100986.72;4901872;28;20100;-80
2021/04/30 11:33:00;;;;;;;7.00;2.85;;;8.30;99.90;;;6.74;79.00;100988.78;4898862;28;20084;-81
2021/04/30 11:35:24;;;;;;;7.22;2.47;;;8.30;99.90;;;6.46;79.45;100986.00;4896303;28;20413;-81
2021/04/30 11:37:48;;;;;;;9.30;4.20;;;8.20;99.90;;;6.94;80.67;100997.84;4907990;28;20097;-82
2021/04/30 11:40:13;;;;;;;8.93;3.37;;;8.40;99.90;;;6.99;79.62;100990.72;4903036;28;20316;-76